Chanute, KS (66720)

1:52 AM CST on March 01, 2015 (GMT -0600)
Casa Bravo | Change Station
CLOSE
Current Station
Personal Weather Station
Location: Chanute, KS
Elevation: 998 ft
Nearby Weather Stations

Elev 998 ft 37.67 °N, 95.47 °W | Updated 7 minutes ago

Overcast
Overcast
22.0 °F
Feels Like 22 °F
N
0.0
Wind Variable Wind from East

Today
High -- | Low -- °F
--% Chance of Precip.
Yesterday
High -- | Low -- °F
Precip. -- in
6:53 AM 6:15 PM
Waxing Gibbous, 83% visible
Pressure 30.35 in
Visibility 4.0 miles
Clouds Scattered Clouds 600 ft
Overcast 1100 ft
Windchill 22 °F
Dew Point 18 °F
Humidity 86%
Rainfall 0.00 in
Snow Depth Not available.
UV 0 out of 12
Pollen .50 out of 12
Air Quality Not available.
Flu Activity Not available.
SPECI KCNU 010724Z AUTO 00000KT 4SM BR SCT006 OVC011 M04/M06 A3035 RMK AO2 T10441056

More Conditions Fewer Conditions

Pressure 30.35 in
Visibility 4.0 miles
Clouds Scattered Clouds 600 ft
Overcast 1100 ft
Windchill 22 °F
Dew Point 18 °F
Humidity 86%
Rainfall 0.00 in
Snow Depth Not available.
UV 0 out of 12
Pollen .50 out of 12
Air Quality Not available.
Flu Activity Not available.
SPECI KCNU 010724Z AUTO 00000KT 4SM BR SCT006 OVC011 M04/M06 A3035 RMK AO2 T10441056

More Conditions Fewer Conditions

10-Day Weather Forecast

Almanac

Astronomy

Mar. 01, 2015 Rise Set
Actual Time
Civil Twilight
Nautical Twilight
Astronomical Twilight
Moon
Length of Visible Light
Length of Day
Tomorrow will be .
, % of the Moon is Illuminated

Today's Extremes

State Highs State Lows

Community

WunderPhotos

Upload Photos

1,801,347 photos uploaded!

WunderBlogs® & News

Nearby

Air Quality

  Air Quality AQ Index Pollutant
Not available.

Snow Depth

Station Depth Elevation

Earthquake Activity

City Distance Mag. Time & Date
Minimum magnitude displayed is 2.5.

Coastal Water Temperatures

Place Temperature

Nearby Weather Stations

Winter Weather Advisory
Statement as of 8:32 PM CST on February 28, 2015

... Winter Weather Advisory remains in effect until noon CST
Sunday...

* timing... another round of light snow is expected to develop
tonight with some freezing drizzle possible near the Oklahoma
border. The wintry precipitation will continue into midday
on Sunday.

* Snow accumulations... up to an additional inch can be expected
into early Sunday morning... with perhaps up to 2 inches along
the Highway 50 corridor.

* Freezing drizzle... is possible overnight into Sunday morning
across south central and southeast Kansas... mainly closer to the
Oklahoma border.

* Main impacts... include reduced visibilities to under 1 mile at
times in snow... along with snow covered and slick roads. Any
freezing drizzle in southern Kansas will make driving conditions
very hazardous.

Precautionary/preparedness actions...

A Winter Weather Advisory means that periods of winter weather
will cause travel difficulties. Be prepared for slippery roads
and limited visibilities. Use caution while driving.